sensor_id;sensor_type;location;lat;lon;timestamp;temperature;humidity
18189;DHT22;9219;50.396;8.546;2022-11-20T00:05:02;2.50;99.90
18189;DHT22;9219;50.396;8.546;2022-11-20T00:07:34;2.60;99.90
18189;DHT22;9219;50.396;8.546;2022-11-20T00:10:02;2.60;99.90
18189;DHT22;9219;50.396;8.546;2022-11-20T00:12:29;2.50;99.90
18189;DHT22;9219;50.396;8.546;2022-11-20T00:14:57;2.60;99.90
18189;DHT22;9219;50.396;8.546;2022-11-20T00:17:25;2.60;99.90
18189;DHT22;9219;50.396;8.546;2022-11-20T00:19:52;2.60;99.90
18189;DHT22;9219;50.396;8.546;2022-11-20T00:27:53;2.60;99.90
18189;DHT22;9219;50.396;8.546;2022-11-20T00:30:24;2.60;99.90
18189;DHT22;9219;50.396;8.546;2022-11-20T00:32:52;2.50;99.90
18189;DHT22;9219;50.396;8.546;2022-11-20T00:35:22;2.60;99.90
18189;DHT22;9219;50.396;8.546;2022-11-20T00:37:49;2.40;99.90
18189;DHT22;9219;50.396;8.546;2022-11-20T00:40:17;2.40;99.90
18189;DHT22;9219;50.396;8.546;2022-11-20T00:42:44;2.50;99.90
18189;DHT22;9219;50.396;8.546;2022-11-20T00:45:13;2.00;99.90
18189;DHT22;9219;50.396;8.546;2022-11-20T00:53:10;2.10;99.90
18189;DHT22;9219;50.396;8.546;2022-11-20T00:55:51;2.10;99.90
18189;DHT22;9219;50.396;8.546;2022-11-20T00:58:22;2.20;99.90
18189;DHT22;9219;50.396;8.546;2022-11-20T01:00:50;2.40;99.90
18189;DHT22;9219;50.396;8.546;2022-11-20T01:03:18;2.40;99.90
18189;DHT22;9219;50.396;8.546;2022-11-20T01:05:52;2.50;99.90
18189;DHT22;9219;50.396;8.546;2022-11-20T01:08:24;2.60;99.90
18189;DHT22;9219;50.396;8.546;2022-11-20T01:10:52;2.60;99.90
18189;DHT22;9219;50.396;8.546;2022-11-20T01:18:46;2.60;99.90
18189;DHT22;9219;50.396;8.546;2022-11-20T01:21:20;2.70;99.90
18189;DHT22;9219;50.396;8.546;2022-11-20T01:23:49;2.90;99.90
18189;DHT22;9219;50.396;8.546;2022-11-20T01:26:19;3.00;99.90
18189;DHT22;9219;50.396;8.546;2022-11-20T01:28:47;2.90;99.90
18189;DHT22;9219;50.396;8.546;2022-11-20T01:31:16;2.80;99.90
18189;DHT22;9219;50.396;8.546;2022-11-20T01:33:46;2.90;99.90
18189;DHT22;9219;50.396;8.546;2022-11-20T01:36:15;3.00;99.90
18189;DHT22;9219;50.396;8.546;2022-11-20T01:44:15;3.00;99.90
18189;DHT22;9219;50.396;8.546;2022-11-20T01:46:52;2.90;99.90
18189;DHT22;9219;50.396;8.546;2022-11-20T01:49:25;2.80;99.90
18189;DHT22;9219;50.396;8.546;2022-11-20T01:51:58;3.00;99.90
18189;DHT22;9219;50.396;8.546;2022-11-20T01:54:30;3.10;99.90
18189;DHT22;9219;50.396;8.546;2022-11-20T01:57:03;3.20;99.90
18189;DHT22;9219;50.396;8.546;2022-11-20T01:59:33;3.00;99.90
18189;DHT22;9219;50.396;8.546;2022-11-20T02:02:02;2.70;99.90
18189;DHT22;9219;50.396;8.546;2022-11-20T02:10:00;2.90;99.90
18189;DHT22;9219;50.396;8.546;2022-11-20T02:12:32;2.70;99.90
18189;DHT22;9219;50.396;8.546;2022-11-20T02:15:18;2.50;99.90
18189;DHT22;9219;50.396;8.546;2022-11-20T02:17:46;2.30;99.90
18189;DHT22;9219;50.396;8.546;2022-11-20T02:20:14;2.40;99.90
18189;DHT22;9219;50.396;8.546;2022-11-20T02:22:46;2.30;99.90
18189;DHT22;9219;50.396;8.546;2022-11-20T02:25:17;2.10;99.90
18189;DHT22;9219;50.396;8.546;2022-11-20T02:33:15;1.80;99.90
18189;DHT22;9219;50.396;8.546;2022-11-20T02:35:47;1.80;99.90
18189;DHT22;9219;50.396;8.546;2022-11-20T02:38:14;2.20;99.90
18189;DHT22;9219;50.396;8.546;2022-11-20T02:40:42;2.50;99.90
18189;DHT22;9219;50.396;8.546;2022-11-20T02:43:11;2.30;99.90
18189;DHT22;9219;50.396;8.546;2022-11-20T02:45:39;2.30;99.90
18189;DHT22;9219;50.396;8.546;2022-11-20T02:48:07;2.40;99.90
18189;DHT22;9219;50.396;8.546;2022-11-20T02:50:38;2.40;99.90
18189;DHT22;9219;50.396;8.546;2022-11-20T02:56:12;2.20;99.90
18189;DHT22;9219;50.396;8.546;2022-11-20T02:58:43;2.30;99.90
18189;DHT22;9219;50.396;8.546;2022-11-20T03:01:10;2.40;99.90
18189;DHT22;9219;50.396;8.546;2022-11-20T03:03:38;2.40;99.90
18189;DHT22;9219;50.396;8.546;2022-11-20T03:06:06;2.40;99.90
18189;DHT22;9219;50.396;8.546;2022-11-20T03:08:34;2.40;99.90
18189;DHT22;9219;50.396;8.546;2022-11-20T03:11:03;2.10;99.90
18189;DHT22;9219;50.396;8.546;2022-11-20T03:13:32;2.20;99.90
18189;DHT22;9219;50.396;8.546;2022-11-20T03:21:35;2.30;99.90
18189;DHT22;9219;50.396;8.546;2022-11-20T03:24:10;2.50;99.90
18189;DHT22;9219;50.396;8.546;2022-11-20T03:26:39;2.80;99.90
18189;DHT22;9219;50.396;8.546;2022-11-20T03:29:06;3.10;99.90
18189;DHT22;9219;50.396;8.546;2022-11-20T03:31:35;2.80;99.90
18189;DHT22;9219;50.396;8.546;2022-11-20T03:34:04;3.20;99.90
18189;DHT22;9219;50.396;8.546;2022-11-20T03:36:31;2.90;99.90
18189;DHT22;9219;50.396;8.546;2022-11-20T03:42:03;2.60;99.90
18189;DHT22;9219;50.396;8.546;2022-11-20T03:44:55;2.50;99.90
18189;DHT22;9219;50.396;8.546;2022-11-20T03:47:23;2.50;99.90
18189;DHT22;9219;50.396;8.546;2022-11-20T03:49:52;1.90;99.90
18189;DHT22;9219;50.396;8.546;2022-11-20T03:52:19;1.90;99.90
18189;DHT22;9219;50.396;8.546;2022-11-20T03:54:47;1.80;99.90
18189;DHT22;9219;50.396;8.546;2022-11-20T03:57:16;1.60;99.90
18189;DHT22;9219;50.396;8.546;2022-11-20T04:05:13;1.40;99.90
18189;DHT22;9219;50.396;8.546;2022-11-20T04:07:44;1.10;99.90
18189;DHT22;9219;50.396;8.546;2022-11-20T04:10:11;1.00;99.90
18189;DHT22;9219;50.396;8.546;2022-11-20T04:12:39;1.30;99.90
18189;DHT22;9219;50.396;8.546;2022-11-20T04:15:07;1.60;99.90
18189;DHT22;9219;50.396;8.546;2022-11-20T04:17:35;1.80;99.90
18189;DHT22;9219;50.396;8.546;2022-11-20T04:20:03;2.00;99.90
18189;DHT22;9219;50.396;8.546;2022-11-20T04:22:32;2.00;99.90
18189;DHT22;9219;50.396;8.546;2022-11-20T04:30:30;1.40;99.90
18189;DHT22;9219;50.396;8.546;2022-11-20T04:33:02;1.90;99.90
18189;DHT22;9219;50.396;8.546;2022-11-20T04:35:29;2.00;99.90
18189;DHT22;9219;50.396;8.546;2022-11-20T04:37:57;1.40;99.90
18189;DHT22;9219;50.396;8.546;2022-11-20T04:40:24;1.60;99.90
18189;DHT22;9219;50.396;8.546;2022-11-20T04:42:52;2.00;99.90
18189;DHT22;9219;50.396;8.546;2022-11-20T04:45:21;2.10;99.90
18189;DHT22;9219;50.396;8.546;2022-11-20T04:47:50;2.20;99.90
18189;DHT22;9219;50.396;8.546;2022-11-20T04:55:47;2.30;99.90
18189;DHT22;9219;50.396;8.546;2022-11-20T04:58:18;2.80;99.90
18189;DHT22;9219;50.396;8.546;2022-11-20T05:00:46;2.50;99.90
18189;DHT22;9219;50.396;8.546;2022-11-20T05:03:17;2.50;99.90
18189;DHT22;9219;50.396;8.546;2022-11-20T05:05:46;2.60;99.90
18189;DHT22;9219;50.396;8.546;2022-11-20T05:08:13;2.60;99.90
18189;DHT22;9219;50.396;8.546;2022-11-20T05:10:41;3.10;99.90
18189;DHT22;9219;50.396;8.546;2022-11-20T05:18:38;3.30;99.90
18189;DHT22;9219;50.396;8.546;2022-11-20T05:21:06;3.50;99.90
18189;DHT22;9219;50.396;8.546;2022-11-20T05:23:34;3.60;99.90
18189;DHT22;9219;50.396;8.546;2022-11-20T05:26:03;3.30;99.90
18189;DHT22;9219;50.396;8.546;2022-11-20T05:28:31;3.10;99.90
18189;DHT22;9219;50.396;8.546;2022-11-20T05:31:05;2.80;99.90
18189;DHT22;9219;50.396;8.546;2022-11-20T05:33:33;2.80;99.90
18189;DHT22;9219;50.396;8.546;2022-11-20T05:36:04;2.60;99.90
18189;DHT22;9219;50.396;8.546;2022-11-20T05:44:16;2.50;99.90
18189;DHT22;9219;50.396;8.546;2022-11-20T05:46:47;2.60;99.90
18189;DHT22;9219;50.396;8.546;2022-11-20T05:49:14;2.60;99.90
18189;DHT22;9219;50.396;8.546;2022-11-20T05:51:42;2.50;99.90
18189;DHT22;9219;50.396;8.546;2022-11-20T05:54:09;2.30;99.90
18189;DHT22;9219;50.396;8.546;2022-11-20T05:56:37;2.30;99.90
18189;DHT22;9219;50.396;8.546;2022-11-20T05:59:04;2.30;99.90
18189;DHT22;9219;50.396;8.546;2022-11-20T06:01:33;2.40;99.90
18189;DHT22;9219;50.396;8.546;2022-11-20T06:09:31;2.60;99.90
18189;DHT22;9219;50.396;8.546;2022-11-20T06:12:03;2.90;99.90
18189;DHT22;9219;50.396;8.546;2022-11-20T06:14:35;3.00;99.90
18189;DHT22;9219;50.396;8.546;2022-11-20T06:24:59;2.70;99.90
18189;DHT22;9219;50.396;8.546;2022-11-20T06:29:48;2.50;99.90
18189;DHT22;9219;50.396;8.546;2022-11-20T06:35:04;2.50;99.90
18189;DHT22;9219;50.396;8.546;2022-11-20T06:37:45;2.60;99.90
18189;DHT22;9219;50.396;8.546;2022-11-20T06:45:00;2.60;99.90
18189;DHT22;9219;50.396;8.546;2022-11-20T06:47:33;2.70;99.90
18189;DHT22;9219;50.396;8.546;2022-11-20T06:50:01;2.70;99.90
18189;DHT22;9219;50.396;8.546;2022-11-20T06:52:28;2.70;99.90
18189;DHT22;9219;50.396;8.546;2022-11-20T06:54:56;2.80;99.90
18189;DHT22;9219;50.396;8.546;2022-11-20T06:57:23;2.90;99.90
18189;DHT22;9219;50.396;8.546;2022-11-20T06:59:51;2.90;99.90
18189;DHT22;9219;50.396;8.546;2022-11-20T07:02:20;3.40;99.90
18189;DHT22;9219;50.396;8.546;2022-11-20T07:10:12;4.10;99.90
18189;DHT22;9219;50.396;8.546;2022-11-20T07:12:49;4.40;99.90
18189;DHT22;9219;50.396;8.546;2022-11-20T07:15:17;4.40;99.90
18189;DHT22;9219;50.396;8.546;2022-11-20T07:17:45;4.40;99.90
18189;DHT22;9219;50.396;8.546;2022-11-20T07:20:13;4.40;99.90
18189;DHT22;9219;50.396;8.546;2022-11-20T07:22:41;4.30;99.90
18189;DHT22;9219;50.396;8.546;2022-11-20T07:25:12;3.90;99.90
18189;DHT22;9219;50.396;8.546;2022-11-20T07:33:10;3.00;99.90
18189;DHT22;9219;50.396;8.546;2022-11-20T07:35:42;3.40;99.90
18189;DHT22;9219;50.396;8.546;2022-11-20T07:38:10;3.30;99.90
18189;DHT22;9219;50.396;8.546;2022-11-20T07:40:38;3.40;99.90
18189;DHT22;9219;50.396;8.546;2022-11-20T07:43:06;3.40;99.90
18189;DHT22;9219;50.396;8.546;2022-11-20T07:45:34;3.30;99.90
18189;DHT22;9219;50.396;8.546;2022-11-20T07:48:01;3.00;99.90
18189;DHT22;9219;50.396;8.546;2022-11-20T07:50:30;2.80;99.90
18189;DHT22;9219;50.396;8.546;2022-11-20T07:58:29;2.60;99.90
18189;DHT22;9219;50.396;8.546;2022-11-20T08:01:05;2.50;99.90
18189;DHT22;9219;50.396;8.546;2022-11-20T08:03:32;2.60;99.90
18189;DHT22;9219;50.396;8.546;2022-11-20T08:06:01;2.70;99.90
18189;DHT22;9219;50.396;8.546;2022-11-20T08:08:29;3.00;99.90
18189;DHT22;9219;50.396;8.546;2022-11-20T08:11:00;3.10;99.90
18189;DHT22;9219;50.396;8.546;2022-11-20T08:13:42;3.10;99.90
18189;DHT22;9219;50.396;8.546;2022-11-20T08:21:58;3.30;99.90
18189;DHT22;9219;50.396;8.546;2022-11-20T08:24:29;3.10;99.90
18189;DHT22;9219;50.396;8.546;2022-11-20T08:26:57;3.10;99.90
18189;DHT22;9219;50.396;8.546;2022-11-20T08:29:26;3.00;99.90
18189;DHT22;9219;50.396;8.546;2022-11-20T08:31:53;3.10;99.90
18189;DHT22;9219;50.396;8.546;2022-11-20T08:34:21;3.10;99.90
18189;DHT22;9219;50.396;8.546;2022-11-20T08:36:49;3.20;99.90
18189;DHT22;9219;50.396;8.546;2022-11-20T08:44:41;3.20;99.90
18189;DHT22;9219;50.396;8.546;2022-11-20T08:47:12;3.30;99.90
18189;DHT22;9219;50.396;8.546;2022-11-20T08:49:39;3.20;99.90
18189;DHT22;9219;50.396;8.546;2022-11-20T08:52:09;3.30;99.90
18189;DHT22;9219;50.396;8.546;2022-11-20T08:54:38;3.30;99.90
18189;DHT22;9219;50.396;8.546;2022-11-20T08:57:06;3.30;99.90
18189;DHT22;9219;50.396;8.546;2022-11-20T08:59:33;3.20;99.90
18189;DHT22;9219;50.396;8.546;2022-11-20T09:05:28;3.20;99.90
18189;DHT22;9219;50.396;8.546;2022-11-20T09:08:00;2.90;99.90
18189;DHT22;9219;50.396;8.546;2022-11-20T09:10:29;3.00;99.90
18189;DHT22;9219;50.396;8.546;2022-11-20T09:12:58;3.00;99.90
18189;DHT22;9219;50.396;8.546;2022-11-20T09:15:27;2.90;99.90
18189;DHT22;9219;50.396;8.546;2022-11-20T09:17:56;2.90;99.90
18189;DHT22;9219;50.396;8.546;2022-11-20T09:20:28;2.90;99.90
18189;DHT22;9219;50.396;8.546;2022-11-20T09:22:57;2.80;99.90
18189;DHT22;9219;50.396;8.546;2022-11-20T09:30:54;2.90;99.90
18189;DHT22;9219;50.396;8.546;2022-11-20T09:33:26;2.90;99.90
18189;DHT22;9219;50.396;8.546;2022-11-20T09:35:55;3.10;99.90
18189;DHT22;9219;50.396;8.546;2022-11-20T09:38:26;3.10;99.90
18189;DHT22;9219;50.396;8.546;2022-11-20T09:40:58;2.80;99.90
18189;DHT22;9219;50.396;8.546;2022-11-20T09:43:42;2.70;99.90
18189;DHT22;9219;50.396;8.546;2022-11-20T09:46:23;2.60;99.90
18189;DHT22;9219;50.396;8.546;2022-11-20T09:54:34;2.40;99.90
18189;DHT22;9219;50.396;8.546;2022-11-20T09:57:12;2.40;99.90
18189;DHT22;9219;50.396;8.546;2022-11-20T09:59:43;2.50;99.90
18189;DHT22;9219;50.396;8.546;2022-11-20T10:02:27;2.80;99.90
18189;DHT22;9219;50.396;8.546;2022-11-20T10:05:00;2.80;99.90
18189;DHT22;9219;50.396;8.546;2022-11-20T10:07:34;3.00;99.90
18189;DHT22;9219;50.396;8.546;2022-11-20T10:10:13;3.00;99.90
18189;DHT22;9219;50.396;8.546;2022-11-20T10:18:14;3.40;99.90
18189;DHT22;9219;50.396;8.546;2022-11-20T10:20:58;3.60;99.90
18189;DHT22;9219;50.396;8.546;2022-11-20T10:24:02;3.70;99.90
18189;DHT22;9219;50.396;8.546;2022-11-20T10:26:40;3.30;99.90
18189;DHT22;9219;50.396;8.546;2022-11-20T10:29:13;3.20;99.90
18189;DHT22;9219;50.396;8.546;2022-11-20T10:31:47;3.20;99.90
18189;DHT22;9219;50.396;8.546;2022-11-20T10:34:21;3.40;99.90
18189;DHT22;9219;50.396;8.546;2022-11-20T10:42:51;3.40;99.90
18189;DHT22;9219;50.396;8.546;2022-11-20T10:45:38;3.80;99.90
18189;DHT22;9219;50.396;8.546;2022-11-20T10:48:15;3.60;99.90
18189;DHT22;9219;50.396;8.546;2022-11-20T10:51:01;3.00;99.90
18189;DHT22;9219;50.396;8.546;2022-11-20T10:53:43;3.10;99.90
18189;DHT22;9219;50.396;8.546;2022-11-20T10:56:19;3.00;99.90
18189;DHT22;9219;50.396;8.546;2022-11-20T11:04:18;3.10;99.90
18189;DHT22;9219;50.396;8.546;2022-11-20T11:06:56;3.60;99.90
18189;DHT22;9219;50.396;8.546;2022-11-20T11:09:32;3.80;99.90
18189;DHT22;9219;50.396;8.546;2022-11-20T11:12:00;3.70;99.90
18189;DHT22;9219;50.396;8.546;2022-11-20T11:14:42;3.70;99.90
18189;DHT22;9219;50.396;8.546;2022-11-20T11:17:29;3.70;99.90
18189;DHT22;9219;50.396;8.546;2022-11-20T11:20:01;3.90;99.90
18189;DHT22;9219;50.396;8.546;2022-11-20T11:28:02;4.10;99.90
18189;DHT22;9219;50.396;8.546;2022-11-20T11:30:42;4.00;99.90
18189;DHT22;9219;50.396;8.546;2022-11-20T11:33:19;4.20;99.90
18189;DHT22;9219;50.396;8.546;2022-11-20T11:35:50;4.10;99.90
18189;DHT22;9219;50.396;8.546;2022-11-20T11:38:22;4.00;99.90
18189;DHT22;9219;50.396;8.546;2022-11-20T11:40:53;4.10;99.90
18189;DHT22;9219;50.396;8.546;2022-11-20T11:43:25;4.30;99.90
18189;DHT22;9219;50.396;8.546;2022-11-20T11:46:25;4.20;99.90
18189;DHT22;9219;50.396;8.546;2022-11-20T11:54:27;4.30;99.90
18189;DHT22;9219;50.396;8.546;2022-11-20T11:57:00;4.10;99.90
18189;DHT22;9219;50.396;8.546;2022-11-20T11:59:38;4.30;99.90
18189;DHT22;9219;50.396;8.546;2022-11-20T12:02:22;4.40;99.90
18189;DHT22;9219;50.396;8.546;2022-11-20T12:04:57;4.40;99.90
18189;DHT22;9219;50.396;8.546;2022-11-20T12:07:38;4.50;99.90
18189;DHT22;9219;50.396;8.546;2022-11-20T12:10:21;4.70;99.90
18189;DHT22;9219;50.396;8.546;2022-11-20T12:18:21;4.40;99.90
18189;DHT22;9219;50.396;8.546;2022-11-20T12:21:03;4.20;99.90
18189;DHT22;9219;50.396;8.546;2022-11-20T12:23:42;4.10;99.90
18189;DHT22;9219;50.396;8.546;2022-11-20T12:26:21;4.20;99.90
18189;DHT22;9219;50.396;8.546;2022-11-20T12:29:02;4.30;99.90
18189;DHT22;9219;50.396;8.546;2022-11-20T12:31:54;4.40;99.90
18189;DHT22;9219;50.396;8.546;2022-11-20T12:34:58;4.40;99.90
18189;DHT22;9219;50.396;8.546;2022-11-20T12:53:14;4.20;99.90
18189;DHT22;9219;50.396;8.546;2022-11-20T12:55:58;4.80;99.90
18189;DHT22;9219;50.396;8.546;2022-11-20T12:58:35;4.80;99.90
18189;DHT22;9219;50.396;8.546;2022-11-20T13:01:21;4.80;99.90
18189;DHT22;9219;50.396;8.546;2022-11-20T13:04:15;4.80;99.90
18189;DHT22;9219;50.396;8.546;2022-11-20T13:06:46;4.80;99.90
18189;DHT22;9219;50.396;8.546;2022-11-20T13:09:20;4.80;99.90
18189;DHT22;9219;50.396;8.546;2022-11-20T13:12:06;4.90;99.90
18189;DHT22;9219;50.396;8.546;2022-11-20T13:20:00;5.00;99.90
18189;DHT22;9219;50.396;8.546;2022-11-20T13:22:45;4.90;99.90
18189;DHT22;9219;50.396;8.546;2022-11-20T13:25:25;4.90;99.90
18189;DHT22;9219;50.396;8.546;2022-11-20T13:27:55;5.00;99.90
18189;DHT22;9219;50.396;8.546;2022-11-20T13:30:25;4.90;99.90
18189;DHT22;9219;50.396;8.546;2022-11-20T13:33:06;4.80;99.90
18189;DHT22;9219;50.396;8.546;2022-11-20T13:35:42;4.60;99.90
18189;DHT22;9219;50.396;8.546;2022-11-20T13:38:12;4.60;99.90
18189;DHT22;9219;50.396;8.546;2022-11-20T13:54:29;4.40;99.90
18189;DHT22;9219;50.396;8.546;2022-11-20T13:57:15;4.10;99.90
18189;DHT22;9219;50.396;8.546;2022-11-20T13:59:55;4.40;99.90
18189;DHT22;9219;50.396;8.546;2022-11-20T14:02:27;4.50;99.90
18189;DHT22;9219;50.396;8.546;2022-11-20T14:04:58;4.50;99.90
18189;DHT22;9219;50.396;8.546;2022-11-20T14:07:34;4.50;99.90
18189;DHT22;9219;50.396;8.546;2022-11-20T14:13:10;4.40;99.90
18189;DHT22;9219;50.396;8.546;2022-11-20T14:15:39;4.50;99.90
18189;DHT22;9219;50.396;8.546;2022-11-20T14:18:13;4.70;99.90
18189;DHT22;9219;50.396;8.546;2022-11-20T14:20:46;4.80;99.90
18189;DHT22;9219;50.396;8.546;2022-11-20T14:23:26;4.90;99.90
18189;DHT22;9219;50.396;8.546;2022-11-20T14:26:01;4.70;99.90
18189;DHT22;9219;50.396;8.546;2022-11-20T14:28:37;4.50;99.90
18189;DHT22;9219;50.396;8.546;2022-11-20T14:33:58;4.30;99.90
18189;DHT22;9219;50.396;8.546;2022-11-20T14:36:39;4.40;99.90
18189;DHT22;9219;50.396;8.546;2022-11-20T14:39:10;4.20;99.90
18189;DHT22;9219;50.396;8.546;2022-11-20T14:41:51;4.10;99.90
18189;DHT22;9219;50.396;8.546;2022-11-20T14:44:24;4.10;99.90
18189;DHT22;9219;50.396;8.546;2022-11-20T14:46:55;4.20;99.90
18189;DHT22;9219;50.396;8.546;2022-11-20T14:49:30;4.10;99.90
18189;DHT22;9219;50.396;8.546;2022-11-20T14:51:59;4.40;99.90
18189;DHT22;9219;50.396;8.546;2022-11-20T15:00:19;4.30;99.90
18189;DHT22;9219;50.396;8.546;2022-11-20T15:02:56;4.20;99.90
18189;DHT22;9219;50.396;8.546;2022-11-20T15:05:46;3.90;99.90
18189;DHT22;9219;50.396;8.546;2022-11-20T15:08:31;3.90;99.90
18189;DHT22;9219;50.396;8.546;2022-11-20T15:11:03;3.50;99.90
18189;DHT22;9219;50.396;8.546;2022-11-20T15:13:46;3.50;99.90
18189;DHT22;9219;50.396;8.546;2022-11-20T15:16:24;3.70;99.90
18189;DHT22;9219;50.396;8.546;2022-11-20T15:22:04;4.20;99.90
18189;DHT22;9219;50.396;8.546;2022-11-20T15:24:38;4.00;99.90
18189;DHT22;9219;50.396;8.546;2022-11-20T15:27:14;4.10;99.90
18189;DHT22;9219;50.396;8.546;2022-11-20T15:29:43;4.10;99.90
18189;DHT22;9219;50.396;8.546;2022-11-20T15:32:12;4.00;99.90
18189;DHT22;9219;50.396;8.546;2022-11-20T15:34:44;3.90;99.90
18189;DHT22;9219;50.396;8.546;2022-11-20T15:37:20;4.10;99.90
18189;DHT22;9219;50.396;8.546;2022-11-20T15:39:57;4.30;99.90
18189;DHT22;9219;50.396;8.546;2022-11-20T15:45:22;4.30;99.90
18189;DHT22;9219;50.396;8.546;2022-11-20T15:47:54;4.30;99.90
18189;DHT22;9219;50.396;8.546;2022-11-20T15:50:29;4.30;99.90
18189;DHT22;9219;50.396;8.546;2022-11-20T15:53:02;4.30;99.90
18189;DHT22;9219;50.396;8.546;2022-11-20T15:55:34;4.30;99.90
18189;DHT22;9219;50.396;8.546;2022-11-20T15:58:05;4.00;99.90
18189;DHT22;9219;50.396;8.546;2022-11-20T16:00:41;4.10;99.90
18189;DHT22;9219;50.396;8.546;2022-11-20T16:03:16;4.00;99.90
18189;DHT22;9219;50.396;8.546;2022-11-20T16:05:59;4.20;99.90
18189;DHT22;9219;50.396;8.546;2022-11-20T16:08:30;4.20;99.90
18189;DHT22;9219;50.396;8.546;2022-11-20T16:10:59;4.30;99.90
18189;DHT22;9219;50.396;8.546;2022-11-20T16:13:28;4.50;99.90
18189;DHT22;9219;50.396;8.546;2022-11-20T16:16:20;4.60;99.90
18189;DHT22;9219;50.396;8.546;2022-11-20T16:18:49;4.70;99.90
18189;DHT22;9219;50.396;8.546;2022-11-20T16:21:20;4.80;99.90
18189;DHT22;9219;50.396;8.546;2022-11-20T16:23:56;4.80;99.90
18189;DHT22;9219;50.396;8.546;2022-11-20T16:31:30;4.60;99.90
18189;DHT22;9219;50.396;8.546;2022-11-20T16:34:05;4.80;99.90
18189;DHT22;9219;50.396;8.546;2022-11-20T16:36:40;4.80;99.90
18189;DHT22;9219;50.396;8.546;2022-11-20T16:39:09;4.90;99.90
18189;DHT22;9219;50.396;8.546;2022-11-20T16:41:38;5.00;99.90
18189;DHT22;9219;50.396;8.546;2022-11-20T16:44:09;5.10;99.90
18189;DHT22;9219;50.396;8.546;2022-11-20T16:46:53;5.00;99.90
18189;DHT22;9219;50.396;8.546;2022-11-20T16:52:28;5.20;99.90
18189;DHT22;9219;50.396;8.546;2022-11-20T16:55:03;5.20;99.90
18189;DHT22;9219;50.396;8.546;2022-11-20T16:57:34;5.30;99.90
18189;DHT22;9219;50.396;8.546;2022-11-20T17:00:06;5.30;99.90
18189;DHT22;9219;50.396;8.546;2022-11-20T17:02:37;5.40;99.90
18189;DHT22;9219;50.396;8.546;2022-11-20T17:05:08;5.40;99.90
18189;DHT22;9219;50.396;8.546;2022-11-20T17:07:40;5.40;99.90
18189;DHT22;9219;50.396;8.546;2022-11-20T17:15:16;5.60;99.90
18189;DHT22;9219;50.396;8.546;2022-11-20T17:17:48;5.60;99.90
18189;DHT22;9219;50.396;8.546;2022-11-20T17:20:20;5.40;99.90
18189;DHT22;9219;50.396;8.546;2022-11-20T17:22:51;5.40;99.90
18189;DHT22;9219;50.396;8.546;2022-11-20T17:25:22;5.50;99.90
18189;DHT22;9219;50.396;8.546;2022-11-20T17:27:57;5.50;99.90
18189;DHT22;9219;50.396;8.546;2022-11-20T17:30:30;5.50;99.90
18189;DHT22;9219;50.396;8.546;2022-11-20T17:35:44;5.60;99.90
18189;DHT22;9219;50.396;8.546;2022-11-20T17:38:16;5.90;99.90
18189;DHT22;9219;50.396;8.546;2022-11-20T17:40:48;5.90;99.90
18189;DHT22;9219;50.396;8.546;2022-11-20T17:43:19;5.90;99.90
18189;DHT22;9219;50.396;8.546;2022-11-20T17:45:50;5.90;99.90
18189;DHT22;9219;50.396;8.546;2022-11-20T17:48:23;6.00;99.90
18189;DHT22;9219;50.396;8.546;2022-11-20T17:50:59;6.00;99.90
18189;DHT22;9219;50.396;8.546;2022-11-20T17:58:39;6.10;99.90
18189;DHT22;9219;50.396;8.546;2022-11-20T18:01:08;6.10;99.90
18189;DHT22;9219;50.396;8.546;2022-11-20T18:03:37;6.00;99.90
18189;DHT22;9219;50.396;8.546;2022-11-20T18:06:09;6.10;99.90
18189;DHT22;9219;50.396;8.546;2022-11-20T18:08:38;6.10;99.90
18189;DHT22;9219;50.396;8.546;2022-11-20T18:11:11;6.10;99.90
18189;DHT22;9219;50.396;8.546;2022-11-20T18:13:47;6.10;99.90
18189;DHT22;9219;50.396;8.546;2022-11-20T18:19:19;6.00;99.90
18189;DHT22;9219;50.396;8.546;2022-11-20T18:21:49;5.90;99.90
18189;DHT22;9219;50.396;8.546;2022-11-20T18:24:37;5.90;99.90
18189;DHT22;9219;50.396;8.546;2022-11-20T18:27:14;6.00;99.90
18189;DHT22;9219;50.396;8.546;2022-11-20T18:29:47;5.70;99.90
18189;DHT22;9219;50.396;8.546;2022-11-20T18:32:37;5.90;99.90
18189;DHT22;9219;50.396;8.546;2022-11-20T18:35:22;6.10;99.90
18189;DHT22;9219;50.396;8.546;2022-11-20T18:37:53;6.30;99.90
18189;DHT22;9219;50.396;8.546;2022-11-20T18:43:25;6.00;99.90
18189;DHT22;9219;50.396;8.546;2022-11-20T18:46:12;5.90;99.90
18189;DHT22;9219;50.396;8.546;2022-11-20T18:48:40;6.00;99.90
18189;DHT22;9219;50.396;8.546;2022-11-20T18:51:09;5.90;99.90
18189;DHT22;9219;50.396;8.546;2022-11-20T18:53:42;5.60;99.90
18189;DHT22;9219;50.396;8.546;2022-11-20T18:56:14;5.80;99.90
18189;DHT22;9219;50.396;8.546;2022-11-20T18:58:44;5.70;99.90
18189;DHT22;9219;50.396;8.546;2022-11-20T19:01:11;5.80;99.90
18189;DHT22;9219;50.396;8.546;2022-11-20T19:08:58;5.90;99.90
18189;DHT22;9219;50.396;8.546;2022-11-20T19:11:36;6.20;99.90
18189;DHT22;9219;50.396;8.546;2022-11-20T19:14:11;5.90;99.90
18189;DHT22;9219;50.396;8.546;2022-11-20T19:16:48;5.60;99.90
18189;DHT22;9219;50.396;8.546;2022-11-20T19:19:21;5.50;99.90
18189;DHT22;9219;50.396;8.546;2022-11-20T19:21:56;5.60;99.90
18189;DHT22;9219;50.396;8.546;2022-11-20T19:24:43;5.70;99.90
18189;DHT22;9219;50.396;8.546;2022-11-20T19:27:29;5.40;99.90
18189;DHT22;9219;50.396;8.546;2022-11-20T19:35:10;5.60;99.90
18189;DHT22;9219;50.396;8.546;2022-11-20T19:37:43;5.30;99.90
18189;DHT22;9219;50.396;8.546;2022-11-20T19:40:12;5.40;99.90
18189;DHT22;9219;50.396;8.546;2022-11-20T19:42:45;5.60;99.90
18189;DHT22;9219;50.396;8.546;2022-11-20T19:45:18;5.50;99.90
18189;DHT22;9219;50.396;8.546;2022-11-20T19:47:52;5.40;99.90
18189;DHT22;9219;50.396;8.546;2022-11-20T19:50:40;5.30;99.90
18189;DHT22;9219;50.396;8.546;2022-11-20T19:53:09;5.50;99.90
18189;DHT22;9219;50.396;8.546;2022-11-20T20:00:56;5.30;99.90
18189;DHT22;9219;50.396;8.546;2022-11-20T20:03:28;5.20;99.90
18189;DHT22;9219;50.396;8.546;2022-11-20T20:06:00;5.50;99.90
18189;DHT22;9219;50.396;8.546;2022-11-20T20:08:30;5.50;99.90
18189;DHT22;9219;50.396;8.546;2022-11-20T20:11:11;5.60;99.90
18189;DHT22;9219;50.396;8.546;2022-11-20T20:13:42;6.00;99.90
18189;DHT22;9219;50.396;8.546;2022-11-20T20:16:16;6.00;99.90
18189;DHT22;9219;50.396;8.546;2022-11-20T20:18:46;5.80;99.90
18189;DHT22;9219;50.396;8.546;2022-11-20T20:21:18;5.80;99.90
18189;DHT22;9219;50.396;8.546;2022-11-20T20:29:09;5.50;99.90
18189;DHT22;9219;50.396;8.546;2022-11-20T20:31:39;5.90;99.90
18189;DHT22;9219;50.396;8.546;2022-11-20T20:34:07;5.90;99.90
18189;DHT22;9219;50.396;8.546;2022-11-20T20:36:38;5.90;99.90
18189;DHT22;9219;50.396;8.546;2022-11-20T20:39:10;5.90;99.90
18189;DHT22;9219;50.396;8.546;2022-11-20T20:41:42;6.20;99.90
18189;DHT22;9219;50.396;8.546;2022-11-20T20:44:14;6.30;99.90
18189;DHT22;9219;50.396;8.546;2022-11-20T20:47:01;6.40;99.90
18189;DHT22;9219;50.396;8.546;2022-11-20T20:54:55;6.70;99.90
18189;DHT22;9219;50.396;8.546;2022-11-20T20:57:24;6.40;99.90
18189;DHT22;9219;50.396;8.546;2022-11-20T20:59:55;6.50;99.90
18189;DHT22;9219;50.396;8.546;2022-11-20T21:02:27;6.50;99.90
18189;DHT22;9219;50.396;8.546;2022-11-20T21:04:59;6.50;99.90
18189;DHT22;9219;50.396;8.546;2022-11-20T21:07:29;6.40;99.90
18189;DHT22;9219;50.396;8.546;2022-11-20T21:09:59;6.20;99.90
18189;DHT22;9219;50.396;8.546;2022-11-20T21:12:29;6.20;99.90
18189;DHT22;9219;50.396;8.546;2022-11-20T21:20:03;6.60;99.90
18189;DHT22;9219;50.396;8.546;2022-11-20T21:22:51;6.40;99.90